createdAt,value
2023-02-06T00:00:12.463Z,99.90
2023-02-06T00:02:40.186Z,99.90
2023-02-06T00:05:08.571Z,99.90
2023-02-06T00:07:36.256Z,99.90
2023-02-06T00:10:04.148Z,99.90
2023-02-06T00:12:32.334Z,99.90
2023-02-06T00:15:00.166Z,99.90
2023-02-06T00:17:29.201Z,99.90
2023-02-06T00:19:56.947Z,99.90
2023-02-06T00:22:24.631Z,99.90
2023-02-06T00:24:52.350Z,99.90
2023-02-06T00:27:20.034Z,99.90
2023-02-06T00:29:47.738Z,99.90
2023-02-06T00:32:15.499Z,99.90
2023-02-06T00:34:44.609Z,99.90
2023-02-06T00:37:12.905Z,99.90
2023-02-06T00:39:40.609Z,99.90
2023-02-06T00:42:08.434Z,99.90
2023-02-06T00:44:36.164Z,99.90
2023-02-06T00:47:03.848Z,99.90
2023-02-06T00:49:31.559Z,99.90
2023-02-06T00:52:00.655Z,99.90
2023-02-06T00:54:28.556Z,99.90
2023-02-06T00:56:56.265Z,99.90
2023-02-06T00:59:24.041Z,99.90
2023-02-06T01:01:51.779Z,99.90
2023-02-06T01:04:19.552Z,99.90
2023-02-06T01:06:47.353Z,99.90
2023-02-06T01:09:16.466Z,99.90
2023-02-06T01:11:44.221Z,99.90
2023-02-06T01:14:12.136Z,99.90
2023-02-06T01:16:39.829Z,99.90
2023-02-06T01:19:07.577Z,99.90
2023-02-06T01:21:35.371Z,99.90
2023-02-06T01:24:03.105Z,99.90
2023-02-06T01:26:32.243Z,99.90
2023-02-06T01:28:59.990Z,99.90
2023-02-06T01:31:29.950Z,99.90
2023-02-06T01:33:59.110Z,99.90
2023-02-06T01:36:27.781Z,99.90
2023-02-06T01:38:55.696Z,99.90
2023-02-06T01:41:24.344Z,99.90
2023-02-06T01:44:10.708Z,99.90
2023-02-06T01:46:39.418Z,99.90
2023-02-06T01:49:09.152Z,99.90
2023-02-06T01:51:37.113Z,99.90
2023-02-06T01:54:08.360Z,99.90
2023-02-06T01:56:40.053Z,99.90
2023-02-06T01:59:09.490Z,99.90
2023-02-06T02:01:37.234Z,99.90
2023-02-06T02:04:08.225Z,99.90
2023-02-06T02:06:36.062Z,99.90
2023-02-06T02:09:05.002Z,99.90
2023-02-06T02:11:34.983Z,99.90
2023-02-06T02:14:05.197Z,99.90
2023-02-06T02:16:42.937Z,99.90
2023-02-06T02:19:37.790Z,99.90
2023-02-06T02:22:40.757Z,99.90
2023-02-06T02:25:42.665Z,99.90
2023-02-06T02:28:37.365Z,99.90
2023-02-06T02:31:20.869Z,99.90
2023-02-06T02:34:21.492Z,99.90
2023-02-06T02:36:56.790Z,99.90
2023-02-06T02:39:32.552Z,99.90
2023-02-06T02:42:06.335Z,99.90
2023-02-06T02:44:41.385Z,99.90
2023-02-06T02:47:12.856Z,99.90
2023-02-06T02:49:41.683Z,99.90
2023-02-06T02:52:10.767Z,99.90
2023-02-06T02:54:38.581Z,99.90
2023-02-06T02:57:09.767Z,99.90
2023-02-06T02:59:40.303Z,99.90
2023-02-06T03:02:13.058Z,99.90
2023-02-06T03:04:46.976Z,99.90
2023-02-06T03:07:25.332Z,99.90
2023-02-06T03:10:04.008Z,99.90
2023-02-06T03:12:40.782Z,99.90
2023-02-06T03:15:16.128Z,99.90
2023-02-06T03:17:50.334Z,99.90
2023-02-06T03:20:18.277Z,99.90
2023-02-06T03:22:50.329Z,99.90
2023-02-06T03:25:26.086Z,99.90
2023-02-06T03:27:55.395Z,99.90
2023-02-06T03:30:25.487Z,99.90
2023-02-06T03:33:02.830Z,99.90
2023-02-06T03:35:35.987Z,99.90
2023-02-06T03:38:07.740Z,99.90
2023-02-06T03:40:36.024Z,99.90
2023-02-06T03:43:05.750Z,99.90
2023-02-06T03:45:37.869Z,99.90
2023-02-06T03:48:11.684Z,99.90
2023-02-06T03:50:44.064Z,99.90
2023-02-06T03:53:15.270Z,99.90
2023-02-06T03:55:45.048Z,99.90
2023-02-06T03:58:15.116Z,99.90
2023-02-06T04:00:44.918Z,99.90
2023-02-06T04:03:14.769Z,99.90
2023-02-06T04:05:42.519Z,99.90
2023-02-06T04:08:10.655Z,99.90
2023-02-06T04:10:39.713Z,99.90
2023-02-06T04:13:07.490Z,99.90
2023-02-06T04:15:36.958Z,99.90
2023-02-06T04:18:06.133Z,99.90
2023-02-06T04:20:34.174Z,99.90
2023-02-06T04:23:01.955Z,99.90
2023-02-06T04:25:29.689Z,99.90
2023-02-06T04:27:59.102Z,99.90
2023-02-06T04:30:26.949Z,99.90
2023-02-06T04:32:54.727Z,99.90
2023-02-06T04:35:22.735Z,99.90
2023-02-06T04:37:50.439Z,99.90
2023-02-06T04:40:18.580Z,99.90
2023-02-06T04:42:46.302Z,99.90
2023-02-06T04:45:15.539Z,99.90
2023-02-06T04:47:43.450Z,99.90
2023-02-06T04:50:11.556Z,99.90
2023-02-06T04:52:39.249Z,99.90
2023-02-06T04:55:08.130Z,99.90
2023-02-06T04:57:35.874Z,99.90
2023-02-06T05:00:03.802Z,99.90
2023-02-06T05:02:37.267Z,99.90
2023-02-06T05:05:05.332Z,99.90
2023-02-06T05:07:33.162Z,99.90
2023-02-06T05:10:00.852Z,99.90
2023-02-06T05:12:29.015Z,99.90
2023-02-06T05:14:56.843Z,99.90
2023-02-06T05:17:24.575Z,99.90
2023-02-06T05:19:53.712Z,99.90
2023-02-06T05:22:21.394Z,99.90
2023-02-06T05:24:49.185Z,99.90
2023-02-06T05:27:16.945Z,99.90
2023-02-06T05:29:44.737Z,99.90
2023-02-06T05:32:12.442Z,99.90
2023-02-06T05:34:40.130Z,99.90
2023-02-06T05:37:09.194Z,99.90
2023-02-06T05:39:36.980Z,99.90
2023-02-06T05:42:05.044Z,99.90
2023-02-06T05:44:32.864Z,99.90
2023-02-06T05:47:00.576Z,99.90
2023-02-06T05:49:28.369Z,99.90
2023-02-06T05:51:56.164Z,99.90
2023-02-06T05:54:25.425Z,99.90
2023-02-06T05:56:53.182Z,99.90
2023-02-06T05:59:21.099Z,99.90
2023-02-06T06:01:48.890Z,99.90
2023-02-06T06:04:16.741Z,99.90
2023-02-06T06:06:44.432Z,99.90
2023-02-06T06:09:12.164Z,99.90
2023-02-06T06:11:41.309Z,99.90
2023-02-06T06:14:09.248Z,99.90
2023-02-06T06:16:36.990Z,99.90
2023-02-06T06:19:04.779Z,99.90
2023-02-06T06:21:33.792Z,99.90
2023-02-06T06:24:01.856Z,99.90
2023-02-06T06:26:29.672Z,99.90
2023-02-06T06:28:58.825Z,99.90
2023-02-06T06:31:26.615Z,99.90
2023-02-06T06:33:54.659Z,99.90
2023-02-06T06:36:22.489Z,99.90
2023-02-06T06:38:50.352Z,99.90
2023-02-06T06:41:18.140Z,99.90
2023-02-06T06:43:45.896Z,99.90
2023-02-06T06:46:14.913Z,99.90
2023-02-06T06:48:42.787Z,99.90
2023-02-06T06:51:10.519Z,99.90
2023-02-06T06:53:39.977Z,99.90
2023-02-06T06:56:09.602Z,99.90
2023-02-06T06:58:37.385Z,99.90
2023-02-06T07:01:05.602Z,99.90
2023-02-06T07:03:34.684Z,99.90
2023-02-06T07:06:02.540Z,99.90
2023-02-06T07:08:30.846Z,99.90
2023-02-06T07:10:58.753Z,99.90
2023-02-06T07:13:26.472Z,99.90
2023-02-06T07:15:54.223Z,99.90
2023-02-06T07:18:22.464Z,99.90
2023-02-06T07:20:51.780Z,99.90
2023-02-06T07:23:19.570Z,99.90
2023-02-06T07:25:47.321Z,99.90
2023-02-06T07:28:15.163Z,99.90
2023-02-06T07:30:43.052Z,99.90
2023-02-06T07:33:10.942Z,99.90
2023-02-06T07:35:38.871Z,99.90
2023-02-06T07:38:08.147Z,99.90
2023-02-06T07:40:44.571Z,99.90
2023-02-06T07:43:13.444Z,99.90
2023-02-06T07:45:41.634Z,99.90
2023-02-06T07:48:09.703Z,99.90
2023-02-06T07:50:37.594Z,99.90
2023-02-06T07:53:05.571Z,99.90
2023-02-06T07:55:37.667Z,99.90
2023-02-06T07:58:05.631Z,99.90
2023-02-06T08:00:33.776Z,99.90
2023-02-06T08:03:01.508Z,99.90
2023-02-06T08:05:29.359Z,99.90
2023-02-06T08:07:57.198Z,99.90
2023-02-06T08:10:25.274Z,99.90
2023-02-06T08:12:54.441Z,99.90
2023-02-06T08:15:22.155Z,99.90
2023-02-06T08:17:49.876Z,99.90
2023-02-06T08:20:17.858Z,99.90
2023-02-06T08:22:46.720Z,99.90
2023-02-06T08:25:14.533Z,99.90
2023-02-06T08:27:42.290Z,99.90
2023-02-06T08:30:14.279Z,99.90
2023-02-06T08:32:42.078Z,99.90
2023-02-06T08:35:09.863Z,99.90
2023-02-06T08:37:37.628Z,99.90
2023-02-06T08:40:06.280Z,99.90
2023-02-06T08:42:34.160Z,99.90
2023-02-06T08:45:01.929Z,99.90
2023-02-06T08:47:30.985Z,99.90
2023-02-06T08:49:59.313Z,99.90
2023-02-06T08:52:28.256Z,99.90
2023-02-06T08:54:55.985Z,99.90
2023-02-06T08:57:23.670Z,99.90
2023-02-06T08:59:51.715Z,99.90
2023-02-06T09:02:21.180Z,99.90
2023-02-06T09:04:52.534Z,99.90
2023-02-06T09:07:22.291Z,99.90
2023-02-06T09:09:52.035Z,99.90
2023-02-06T09:12:22.178Z,99.90
2023-02-06T09:14:51.990Z,99.90
2023-02-06T09:17:21.611Z,99.90
2023-02-06T09:19:52.578Z,99.90
2023-02-06T09:22:22.159Z,99.90
2023-02-06T09:24:51.991Z,99.90
2023-02-06T09:27:22.154Z,99.90
2023-02-06T09:29:51.834Z,99.90
2023-02-06T09:32:21.615Z,99.90
2023-02-06T09:34:53.040Z,99.90
2023-02-06T09:37:24.138Z,99.90
2023-02-06T09:39:53.800Z,99.90
2023-02-06T09:42:36.304Z,99.90
2023-02-06T09:45:10.237Z,99.90
2023-02-06T09:47:44.530Z,99.90
2023-02-06T09:50:26.022Z,99.90
2023-02-06T09:53:08.584Z,99.90
2023-02-06T09:55:42.691Z,99.90
2023-02-06T09:58:22.640Z,99.90
2023-02-06T10:00:54.405Z,99.90
2023-02-06T10:03:39.791Z,99.90
2023-02-06T10:06:19.050Z,99.90
2023-02-06T10:08:52.510Z,99.90
2023-02-06T10:11:28.289Z,99.90
2023-02-06T10:14:00.435Z,99.90
2023-02-06T10:16:39.632Z,99.90
2023-02-06T10:19:15.851Z,99.90
2023-02-06T10:21:47.262Z,99.90
2023-02-06T10:24:24.772Z,99.90
2023-02-06T10:26:54.555Z,99.90
2023-02-06T10:29:26.540Z,99.90
2023-02-06T10:32:03.913Z,99.90
2023-02-06T10:34:45.412Z,99.90
2023-02-06T10:37:32.104Z,99.90
2023-02-06T10:40:19.204Z,99.90
2023-02-06T10:42:54.468Z,99.90
2023-02-06T10:45:35.324Z,99.90
2023-02-06T10:48:11.529Z,99.90
2023-02-06T10:50:44.091Z,99.90
2023-02-06T10:53:19.292Z,99.90
2023-02-06T10:55:52.388Z,99.90
2023-02-06T10:58:25.059Z,99.90
2023-02-06T11:00:54.550Z,99.60
2023-02-06T11:03:25.334Z,99.80
2023-02-06T11:05:53.897Z,99.60
2023-02-06T11:08:27.297Z,98.80
2023-02-06T11:10:55.929Z,97.80
2023-02-06T11:13:28.138Z,96.60
2023-02-06T11:16:02.423Z,94.30
2023-02-06T11:18:34.141Z,93.30
2023-02-06T11:21:02.663Z,92.70
2023-02-06T11:23:34.628Z,92.00
2023-02-06T11:26:10.417Z,91.20
2023-02-06T11:28:41.410Z,91.20
2023-02-06T11:31:10.416Z,90.00
2023-02-06T11:33:47.191Z,86.00
2023-02-06T11:36:27.162Z,87.00
2023-02-06T11:38:58.438Z,89.10
2023-02-06T11:41:26.207Z,89.70
2023-02-06T11:44:01.454Z,90.20
2023-02-06T11:46:30.899Z,90.90
2023-02-06T11:49:08.443Z,89.70
2023-02-06T11:51:54.277Z,86.20
2023-02-06T11:54:29.254Z,80.40
2023-02-06T11:57:00.215Z,81.10
2023-02-06T11:59:28.607Z,82.40
2023-02-06T12:01:57.510Z,82.30
2023-02-06T12:04:31.510Z,83.90
2023-02-06T12:07:04.635Z,84.00
2023-02-06T12:09:33.802Z,83.30
2023-02-06T12:12:05.930Z,84.00
2023-02-06T12:14:39.327Z,83.20
2023-02-06T12:17:21.508Z,80.50
2023-02-06T12:19:52.772Z,80.90
2023-02-06T12:22:24.065Z,79.70
2023-02-06T12:24:57.276Z,79.30
2023-02-06T12:27:30.196Z,78.00
2023-02-06T12:30:02.406Z,78.40
2023-02-06T12:32:35.405Z,78.60
2023-02-06T12:35:15.408Z,76.90
2023-02-06T12:37:48.830Z,74.80
2023-02-06T12:40:28.106Z,71.40
2023-02-06T12:43:00.993Z,67.90
2023-02-06T12:45:39.976Z,63.90
2023-02-06T12:48:15.526Z,60.40
2023-02-06T12:50:47.570Z,58.80
2023-02-06T12:53:19.039Z,57.10
2023-02-06T12:55:53.850Z,56.80
2023-02-06T12:58:24.764Z,54.50
2023-02-06T13:01:03.295Z,54.70
2023-02-06T13:03:36.502Z,53.60
2023-02-06T13:06:14.231Z,55.20
2023-02-06T13:08:47.198Z,55.70
2023-02-06T13:11:31.753Z,57.40
2023-02-06T13:14:06.683Z,59.00
2023-02-06T13:16:56.671Z,61.20
2023-02-06T13:19:31.039Z,62.50
2023-02-06T13:22:32.845Z,60.80
2023-02-06T13:25:03.328Z,62.70
2023-02-06T13:27:39.984Z,62.60
2023-02-06T13:30:47.426Z,59.80
2023-02-06T13:33:16.799Z,58.10
2023-02-06T13:35:56.483Z,57.80
2023-02-06T13:38:38.274Z,56.50
2023-02-06T13:41:29.829Z,56.10
2023-02-06T13:44:01.839Z,54.80
2023-02-06T13:46:43.529Z,55.50
2023-02-06T13:49:34.024Z,57.20
2023-02-06T13:52:07.748Z,57.40
2023-02-06T13:54:51.357Z,56.70
2023-02-06T13:57:32.862Z,55.40
2023-02-06T14:00:04.530Z,55.40
2023-02-06T14:02:38.172Z,55.90
2023-02-06T14:05:10.657Z,54.70
2023-02-06T14:08:13.227Z,55.80
2023-02-06T14:11:06.025Z,55.90
2023-02-06T14:13:52.653Z,55.40
2023-02-06T14:16:32.285Z,56.00
2023-02-06T14:19:04.315Z,57.20
2023-02-06T14:21:40.165Z,56.60
2023-02-06T14:24:20.040Z,56.80
2023-02-06T14:27:01.848Z,56.60
2023-02-06T14:29:41.196Z,56.60
2023-02-06T14:32:32.531Z,58.00
2023-02-06T14:35:22.160Z,57.80
2023-02-06T14:38:17.514Z,58.40
2023-02-06T14:40:49.871Z,61.10
2023-02-06T14:43:20.615Z,62.90
2023-02-06T14:46:06.196Z,62.80
2023-02-06T14:48:40.932Z,63.40
2023-02-06T14:51:17.313Z,65.60
2023-02-06T14:53:53.552Z,66.60
2023-02-06T14:56:27.912Z,68.40
2023-02-06T14:58:56.359Z,68.90
2023-02-06T15:01:27.633Z,69.80
2023-02-06T15:04:10.752Z,71.60
2023-02-06T15:06:40.400Z,69.40
2023-02-06T15:09:08.904Z,70.20
2023-02-06T15:11:36.750Z,72.30
2023-02-06T15:14:08.938Z,71.70
2023-02-06T15:16:47.175Z,71.60
2023-02-06T15:19:21.603Z,73.10
2023-02-06T15:21:50.085Z,75.60
2023-02-06T15:24:38.599Z,75.70
2023-02-06T15:27:11.826Z,76.80
2023-02-06T15:29:39.712Z,76.60
2023-02-06T15:32:17.830Z,77.30
2023-02-06T15:34:47.501Z,76.90
2023-02-06T15:37:28.533Z,76.10
2023-02-06T15:39:58.256Z,77.50
2023-02-06T15:42:26.307Z,76.40
2023-02-06T15:44:54.137Z,76.30
2023-02-06T15:47:22.775Z,76.10
2023-02-06T15:49:53.194Z,77.30
2023-02-06T15:52:35.792Z,77.70
2023-02-06T15:55:04.697Z,77.80
2023-02-06T15:57:35.546Z,78.30
2023-02-06T16:00:09.173Z,77.40
2023-02-06T16:02:38.423Z,77.50
2023-02-06T16:05:19.748Z,78.80
2023-02-06T16:07:48.775Z,78.80
2023-02-06T16:10:22.892Z,79.60
2023-02-06T16:12:52.204Z,80.30
2023-02-06T16:15:31.530Z,79.80
2023-02-06T16:18:01.200Z,80.80
2023-02-06T16:20:39.607Z,80.40
2023-02-06T16:23:25.596Z,80.80
2023-02-06T16:26:07.298Z,82.10
2023-02-06T16:28:41.923Z,81.10
2023-02-06T16:31:13.773Z,82.30
2023-02-06T16:33:45.427Z,82.00
2023-02-06T16:36:16.175Z,82.30
2023-02-06T16:38:51.031Z,82.80
2023-02-06T16:41:32.889Z,83.20
2023-02-06T16:44:01.731Z,83.90
2023-02-06T16:46:29.915Z,85.10
2023-02-06T16:48:59.130Z,86.40
2023-02-06T16:51:30.820Z,87.90
2023-02-06T16:53:59.511Z,89.50
2023-02-06T16:56:27.284Z,87.80
2023-02-06T16:58:55.085Z,82.80
2023-02-06T17:01:26.443Z,85.00
2023-02-06T17:03:54.896Z,83.80
2023-02-06T17:06:25.441Z,84.30
2023-02-06T17:08:56.933Z,85.50
2023-02-06T17:11:24.906Z,82.60
2023-02-06T17:13:53.079Z,83.80
2023-02-06T17:16:23.465Z,82.20
2023-02-06T17:18:51.877Z,81.40
2023-02-06T17:21:21.792Z,81.60
2023-02-06T17:23:51.116Z,82.30
2023-02-06T17:26:23.224Z,83.00
2023-02-06T17:28:52.349Z,83.20
2023-02-06T17:31:20.768Z,84.50
2023-02-06T17:33:48.892Z,83.40
2023-02-06T17:36:18.195Z,83.00
2023-02-06T17:38:46.256Z,85.00
2023-02-06T17:41:14.097Z,84.80
2023-02-06T17:43:43.367Z,85.80
2023-02-06T17:46:11.948Z,86.70
2023-02-06T17:48:42.770Z,86.10
2023-02-06T17:51:10.888Z,87.60
2023-02-06T17:53:38.960Z,87.50
2023-02-06T17:56:08.682Z,88.90
2023-02-06T17:58:36.843Z,88.60
2023-02-06T18:01:11.064Z,85.80
2023-02-06T18:03:38.899Z,86.10
2023-02-06T18:06:07.096Z,85.00
2023-02-06T18:08:35.143Z,84.90
2023-02-06T18:11:09.422Z,84.70
2023-02-06T18:13:37.343Z,85.80
2023-02-06T18:16:07.939Z,85.70
2023-02-06T18:18:35.977Z,86.70
2023-02-06T18:21:04.562Z,86.50
2023-02-06T18:23:32.566Z,87.50
2023-02-06T18:26:03.346Z,88.50
2023-02-06T18:28:31.647Z,90.00
2023-02-06T18:31:02.002Z,90.80
2023-02-06T18:33:33.802Z,90.60
2023-02-06T18:36:06.195Z,90.20
2023-02-06T18:38:34.252Z,90.70
2023-02-06T18:41:04.296Z,91.00
2023-02-06T18:43:31.813Z,91.60
2023-02-06T18:46:06.789Z,92.30
2023-02-06T18:48:36.183Z,92.00
2023-02-06T18:51:08.045Z,91.90
2023-02-06T18:53:36.127Z,91.50
2023-02-06T18:56:04.642Z,91.10
2023-02-06T18:58:32.494Z,91.60
2023-02-06T19:01:00.421Z,92.60
2023-02-06T19:03:28.458Z,91.50
2023-02-06T19:05:57.720Z,91.20
2023-02-06T19:08:25.635Z,90.40
2023-02-06T19:10:57.395Z,90.80
2023-02-06T19:13:25.301Z,91.50
2023-02-06T19:16:05.756Z,92.90
2023-02-06T19:18:38.691Z,93.20
2023-02-06T19:21:11.654Z,93.40
2023-02-06T19:23:40.093Z,93.90
2023-02-06T19:26:09.214Z,94.00
2023-02-06T19:28:38.145Z,94.80
2023-02-06T19:31:07.409Z,95.30
2023-02-06T19:33:37.537Z,95.40
2023-02-06T19:36:07.533Z,95.20
2023-02-06T19:38:37.028Z,94.30
2023-02-06T19:41:08.553Z,94.70
2023-02-06T19:43:36.938Z,95.40
2023-02-06T19:46:06.110Z,95.70
2023-02-06T19:48:34.787Z,96.00
2023-02-06T19:51:06.789Z,93.30
2023-02-06T19:53:36.383Z,92.80
2023-02-06T19:56:05.435Z,93.50
2023-02-06T19:58:33.766Z,93.10
2023-02-06T20:01:09.031Z,93.50
2023-02-06T20:03:36.962Z,93.40
2023-02-06T20:06:06.532Z,93.40
2023-02-06T20:08:35.911Z,93.30
2023-02-06T20:11:05.680Z,92.60
2023-02-06T20:13:33.797Z,92.80
2023-02-06T20:16:03.672Z,92.80
2023-02-06T20:18:32.012Z,93.50
2023-02-06T20:21:00.036Z,93.40
2023-02-06T20:23:28.610Z,93.30
2023-02-06T20:25:58.253Z,93.80
2023-02-06T20:28:27.643Z,93.90
2023-02-06T20:30:55.832Z,94.20
2023-02-06T20:33:24.104Z,93.60
2023-02-06T20:35:52.012Z,94.60
2023-02-06T20:38:19.939Z,93.70
2023-02-06T20:40:51.264Z,93.50
2023-02-06T20:43:20.732Z,93.90
2023-02-06T20:45:48.685Z,93.80
2023-02-06T20:48:16.470Z,93.60
2023-02-06T20:50:44.222Z,93.40
2023-02-06T20:53:12.012Z,93.80
2023-02-06T20:55:43.977Z,93.80
2023-02-06T20:58:12.006Z,93.80
2023-02-06T21:00:41.598Z,93.60
2023-02-06T21:03:09.369Z,94.50
2023-02-06T21:05:37.243Z,94.60
2023-02-06T21:08:05.371Z,94.00
2023-02-06T21:10:33.243Z,94.20
2023-02-06T21:13:00.971Z,94.30
2023-02-06T21:15:28.783Z,93.80
2023-02-06T21:17:58.049Z,94.00
2023-02-06T21:20:25.827Z,94.50
2023-02-06T21:22:55.078Z,94.60
2023-02-06T21:25:23.837Z,94.50
2023-02-06T21:27:51.667Z,94.30
2023-02-06T21:30:19.587Z,94.50
2023-02-06T21:32:47.417Z,93.60
2023-02-06T21:35:16.822Z,93.90
2023-02-06T21:37:44.670Z,94.20
2023-02-06T21:40:12.963Z,94.60
2023-02-06T21:42:40.694Z,95.40
2023-02-06T21:45:09.777Z,94.70
2023-02-06T21:47:37.537Z,94.40
2023-02-06T21:50:06.158Z,95.00
2023-02-06T21:52:37.717Z,95.20
2023-02-06T21:55:07.603Z,95.10
2023-02-06T21:57:35.639Z,95.00
2023-02-06T22:00:03.379Z,95.60
2023-02-06T22:02:31.224Z,95.50
2023-02-06T22:04:59.584Z,95.90
2023-02-06T22:07:27.383Z,96.00
2023-02-06T22:09:56.497Z,95.50
2023-02-06T22:12:24.398Z,94.90
2023-02-06T22:14:52.178Z,94.20
2023-02-06T22:17:19.881Z,94.80
2023-02-06T22:19:48.712Z,94.80
2023-02-06T22:22:16.536Z,95.00
2023-02-06T22:24:44.566Z,95.50
2023-02-06T22:27:13.734Z,95.00
2023-02-06T22:29:41.707Z,95.30
2023-02-06T22:32:09.524Z,95.80
2023-02-06T22:34:37.321Z,95.80
2023-02-06T22:37:05.149Z,95.90
2023-02-06T22:39:32.975Z,96.20
2023-02-06T22:42:00.845Z,97.00
2023-02-06T22:44:29.937Z,97.10
2023-02-06T22:46:57.735Z,96.80
2023-02-06T22:49:26.302Z,96.10
2023-02-06T22:51:54.375Z,95.70
2023-02-06T22:54:22.193Z,96.20
2023-02-06T22:56:50.100Z,96.70
2023-02-06T22:59:20.065Z,96.90
2023-02-06T23:01:51.353Z,96.60
2023-02-06T23:04:21.221Z,96.30
2023-02-06T23:06:49.762Z,95.80
2023-02-06T23:09:20.372Z,96.30
2023-02-06T23:11:48.946Z,96.50
2023-02-06T23:14:18.569Z,95.80
2023-02-06T23:16:47.402Z,96.10
2023-02-06T23:19:17.552Z,95.80
2023-02-06T23:21:47.389Z,95.40
2023-02-06T23:24:15.861Z,95.70
2023-02-06T23:26:45.624Z,95.60
2023-02-06T23:29:15.706Z,95.60
2023-02-06T23:31:43.634Z,96.20
2023-02-06T23:34:11.637Z,95.60
2023-02-06T23:36:41.238Z,96.30
2023-02-06T23:39:08.994Z,95.60
2023-02-06T23:41:36.694Z,95.90
2023-02-06T23:44:06.866Z,95.90
2023-02-06T23:46:36.784Z,95.80
2023-02-06T23:49:04.683Z,95.50
2023-02-06T23:51:32.907Z,95.50
2023-02-06T23:54:02.061Z,95.70
2023-02-06T23:56:31.686Z,95.70
2023-02-06T23:59:01.393Z,96.00
